sensor_id;sensor_type;location;lat;lon;timestamp;P1;durP1;ratioP1;P2;durP2;ratioP2
60372;SDS011;46216;52.220;5.134;2023-03-21T00:01:49;24.35;;;15.85;;
60372;SDS011;46216;52.220;5.134;2023-03-21T00:04:18;25.40;;;16.73;;
60372;SDS011;46216;52.220;5.134;2023-03-21T00:06:44;25.38;;;16.00;;
60372;SDS011;46216;52.220;5.134;2023-03-21T00:09:10;22.73;;;16.48;;
60372;SDS011;46216;52.220;5.134;2023-03-21T00:11:36;24.17;;;16.33;;
60372;SDS011;46216;52.220;5.134;2023-03-21T00:14:01;26.92;;;16.73;;
60372;SDS011;46216;52.220;5.134;2023-03-21T00:16:27;24.40;;;16.40;;
60372;SDS011;46216;52.220;5.134;2023-03-21T00:18:59;24.20;;;16.00;;
60372;SDS011;46216;52.220;5.134;2023-03-21T00:21:27;25.75;;;15.90;;
60372;SDS011;46216;52.220;5.134;2023-03-21T00:23:56;27.35;;;16.95;;
60372;SDS011;46216;52.220;5.134;2023-03-21T00:26:22;24.20;;;16.63;;
60372;SDS011;46216;52.220;5.134;2023-03-21T00:28:49;23.75;;;16.52;;
60372;SDS011;46216;52.220;5.134;2023-03-21T00:31:15;27.75;;;17.23;;
60372;SDS011;46216;52.220;5.134;2023-03-21T00:33:41;25.88;;;16.30;;
60372;SDS011;46216;52.220;5.134;2023-03-21T00:36:07;25.52;;;16.20;;
60372;SDS011;46216;52.220;5.134;2023-03-21T00:38:34;22.60;;;16.00;;
60372;SDS011;46216;52.220;5.134;2023-03-21T00:41:04;28.63;;;17.33;;
60372;SDS011;46216;52.220;5.134;2023-03-21T00:43:30;29.77;;;17.63;;
60372;SDS011;46216;52.220;5.134;2023-03-21T00:45:57;25.27;;;16.23;;
60372;SDS011;46216;52.220;5.134;2023-03-21T00:48:23;25.95;;;16.60;;
60372;SDS011;46216;52.220;5.134;2023-03-21T00:50:50;27.38;;;18.00;;
60372;SDS011;46216;52.220;5.134;2023-03-21T00:53:18;30.27;;;18.65;;
60372;SDS011;46216;52.220;5.134;2023-03-21T00:55:44;31.08;;;19.20;;
60372;SDS011;46216;52.220;5.134;2023-03-21T00:58:10;32.78;;;19.63;;
60372;SDS011;46216;52.220;5.134;2023-03-21T01:00:35;34.10;;;20.23;;
60372;SDS011;46216;52.220;5.134;2023-03-21T01:03:02;32.17;;;19.58;;
60372;SDS011;46216;52.220;5.134;2023-03-21T01:05:33;36.03;;;20.65;;
60372;SDS011;46216;52.220;5.134;2023-03-21T01:08:20;33.97;;;20.38;;
60372;SDS011;46216;52.220;5.134;2023-03-21T01:10:47;32.13;;;19.95;;
60372;SDS011;46216;52.220;5.134;2023-03-21T01:13:14;35.20;;;20.48;;
60372;SDS011;46216;52.220;5.134;2023-03-21T01:15:42;36.78;;;21.83;;
60372;SDS011;46216;52.220;5.134;2023-03-21T01:18:11;34.35;;;21.13;;
60372;SDS011;46216;52.220;5.134;2023-03-21T01:20:39;39.67;;;21.60;;
60372;SDS011;46216;52.220;5.134;2023-03-21T01:23:06;39.85;;;22.13;;
60372;SDS011;46216;52.220;5.134;2023-03-21T01:25:31;35.38;;;20.85;;
60372;SDS011;46216;52.220;5.134;2023-03-21T01:27:57;35.70;;;21.98;;
60372;SDS011;46216;52.220;5.134;2023-03-21T01:30:22;39.42;;;22.42;;
60372;SDS011;46216;52.220;5.134;2023-03-21T01:32:48;36.40;;;21.75;;
60372;SDS011;46216;52.220;5.134;2023-03-21T01:35:14;34.65;;;20.67;;
60372;SDS011;46216;52.220;5.134;2023-03-21T01:37:39;39.30;;;21.75;;
60372;SDS011;46216;52.220;5.134;2023-03-21T01:40:05;35.35;;;21.17;;
60372;SDS011;46216;52.220;5.134;2023-03-21T01:42:31;37.45;;;22.42;;
60372;SDS011;46216;52.220;5.134;2023-03-21T01:44:57;34.03;;;21.38;;
60372;SDS011;46216;52.220;5.134;2023-03-21T01:47:25;35.38;;;21.65;;
60372;SDS011;46216;52.220;5.134;2023-03-21T01:49:51;36.83;;;22.20;;
60372;SDS011;46216;52.220;5.134;2023-03-21T01:52:41;36.50;;;22.23;;
60372;SDS011;46216;52.220;5.134;2023-03-21T01:55:07;38.20;;;22.63;;
60372;SDS011;46216;52.220;5.134;2023-03-21T01:57:40;41.13;;;23.35;;
60372;SDS011;46216;52.220;5.134;2023-03-21T02:00:10;40.13;;;24.38;;
60372;SDS011;46216;52.220;5.134;2023-03-21T02:02:36;40.97;;;23.27;;
60372;SDS011;46216;52.220;5.134;2023-03-21T02:05:15;40.97;;;23.75;;
60372;SDS011;46216;52.220;5.134;2023-03-21T02:07:45;44.78;;;24.00;;
60372;SDS011;46216;52.220;5.134;2023-03-21T02:10:11;43.03;;;24.88;;
60372;SDS011;46216;52.220;5.134;2023-03-21T02:12:38;48.15;;;24.80;;
60372;SDS011;46216;52.220;5.134;2023-03-21T02:15:04;46.22;;;24.10;;
60372;SDS011;46216;52.220;5.134;2023-03-21T02:31:00;53.13;;;25.75;;
60372;SDS011;46216;52.220;5.134;2023-03-21T02:38:53;61.00;;;28.10;;
60372;SDS011;46216;52.220;5.134;2023-03-21T02:44:12;57.33;;;27.20;;
60372;SDS011;46216;52.220;5.134;2023-03-21T02:46:46;57.20;;;27.75;;
60372;SDS011;46216;52.220;5.134;2023-03-21T02:50:00;54.30;;;26.92;;
60372;SDS011;46216;52.220;5.134;2023-03-21T02:52:26;55.45;;;26.40;;
60372;SDS011;46216;52.220;5.134;2023-03-21T02:54:55;60.15;;;26.80;;
60372;SDS011;46216;52.220;5.134;2023-03-21T02:57:22;67.65;;;27.10;;
60372;SDS011;46216;52.220;5.134;2023-03-21T02:59:48;59.10;;;27.27;;
60372;SDS011;46216;52.220;5.134;2023-03-21T03:02:15;61.15;;;25.25;;
60372;SDS011;46216;52.220;5.134;2023-03-21T03:04:43;55.25;;;26.35;;
60372;SDS011;46216;52.220;5.134;2023-03-21T03:16:04;42.85;;;20.88;;
60372;SDS011;46216;52.220;5.134;2023-03-21T03:18:38;36.47;;;19.42;;
60372;SDS011;46216;52.220;5.134;2023-03-21T03:26:12;37.20;;;19.42;;
60372;SDS011;46216;52.220;5.134;2023-03-21T03:28:44;38.63;;;18.80;;
60372;SDS011;46216;52.220;5.134;2023-03-21T03:31:13;35.13;;;18.90;;
60372;SDS011;46216;52.220;5.134;2023-03-21T03:33:46;34.58;;;18.67;;
60372;SDS011;46216;52.220;5.134;2023-03-21T03:36:18;38.55;;;20.13;;
60372;SDS011;46216;52.220;5.134;2023-03-21T03:38:48;38.90;;;19.00;;
60372;SDS011;46216;52.220;5.134;2023-03-21T03:41:25;43.38;;;19.92;;
60372;SDS011;46216;52.220;5.134;2023-03-21T03:43:52;39.85;;;20.50;;
60372;SDS011;46216;52.220;5.134;2023-03-21T03:46:28;35.67;;;19.23;;
60372;SDS011;46216;52.220;5.134;2023-03-21T03:48:59;33.95;;;19.33;;
60372;SDS011;46216;52.220;5.134;2023-03-21T03:51:53;37.58;;;19.17;;
60372;SDS011;46216;52.220;5.134;2023-03-21T03:54:31;38.20;;;18.45;;
60372;SDS011;46216;52.220;5.134;2023-03-21T03:57:01;35.88;;;18.20;;
60372;SDS011;46216;52.220;5.134;2023-03-21T03:59:28;36.35;;;18.42;;
60372;SDS011;46216;52.220;5.134;2023-03-21T04:01:54;37.45;;;17.80;;
60372;SDS011;46216;52.220;5.134;2023-03-21T04:04:19;36.50;;;17.23;;
60372;SDS011;46216;52.220;5.134;2023-03-21T04:06:46;35.90;;;17.52;;
60372;SDS011;46216;52.220;5.134;2023-03-21T04:09:15;34.67;;;16.55;;
60372;SDS011;46216;52.220;5.134;2023-03-21T04:11:42;36.03;;;15.77;;
60372;SDS011;46216;52.220;5.134;2023-03-21T04:14:08;34.38;;;16.08;;
60372;SDS011;46216;52.220;5.134;2023-03-21T04:16:33;37.20;;;15.95;;
60372;SDS011;46216;52.220;5.134;2023-03-21T04:18:58;35.05;;;16.52;;
60372;SDS011;46216;52.220;5.134;2023-03-21T04:21:24;33.83;;;16.42;;
60372;SDS011;46216;52.220;5.134;2023-03-21T04:23:51;38.83;;;16.50;;
60372;SDS011;46216;52.220;5.134;2023-03-21T04:26:18;30.98;;;16.08;;
60372;SDS011;46216;52.220;5.134;2023-03-21T04:28:45;34.00;;;17.85;;
60372;SDS011;46216;52.220;5.134;2023-03-21T04:31:11;37.42;;;17.38;;
60372;SDS011;46216;52.220;5.134;2023-03-21T04:33:37;39.42;;;18.42;;
60372;SDS011;46216;52.220;5.134;2023-03-21T04:36:04;41.53;;;18.33;;
60372;SDS011;46216;52.220;5.134;2023-03-21T04:38:30;36.75;;;18.25;;
60372;SDS011;46216;52.220;5.134;2023-03-21T04:40:58;38.85;;;17.88;;
60372;SDS011;46216;52.220;5.134;2023-03-21T04:43:24;38.90;;;17.58;;
60372;SDS011;46216;52.220;5.134;2023-03-21T04:45:49;41.92;;;17.77;;
60372;SDS011;46216;52.220;5.134;2023-03-21T04:48:16;34.72;;;16.98;;
60372;SDS011;46216;52.220;5.134;2023-03-21T04:50:43;43.55;;;18.77;;
60372;SDS011;46216;52.220;5.134;2023-03-21T04:53:09;38.70;;;18.63;;
60372;SDS011;46216;52.220;5.134;2023-03-21T04:55:35;38.65;;;19.75;;
60372;SDS011;46216;52.220;5.134;2023-03-21T04:58:01;41.42;;;19.63;;
60372;SDS011;46216;52.220;5.134;2023-03-21T05:00:27;46.33;;;21.42;;
60372;SDS011;46216;52.220;5.134;2023-03-21T05:02:53;43.75;;;20.85;;
60372;SDS011;46216;52.220;5.134;2023-03-21T05:05:18;42.35;;;20.77;;
60372;SDS011;46216;52.220;5.134;2023-03-21T05:07:44;42.38;;;20.85;;
60372;SDS011;46216;52.220;5.134;2023-03-21T05:10:10;48.05;;;20.58;;
60372;SDS011;46216;52.220;5.134;2023-03-21T05:12:36;40.50;;;22.40;;
60372;SDS011;46216;52.220;5.134;2023-03-21T05:15:02;48.03;;;22.75;;
60372;SDS011;46216;52.220;5.134;2023-03-21T05:17:28;46.28;;;23.10;;
60372;SDS011;46216;52.220;5.134;2023-03-21T05:19:54;45.60;;;22.88;;
60372;SDS011;46216;52.220;5.134;2023-03-21T05:22:20;51.58;;;23.83;;
60372;SDS011;46216;52.220;5.134;2023-03-21T05:24:48;48.85;;;22.73;;
60372;SDS011;46216;52.220;5.134;2023-03-21T05:27:18;43.35;;;23.23;;
60372;SDS011;46216;52.220;5.134;2023-03-21T05:30:03;56.00;;;23.08;;
60372;SDS011;46216;52.220;5.134;2023-03-21T05:32:29;53.17;;;23.83;;
60372;SDS011;46216;52.220;5.134;2023-03-21T05:34:55;52.40;;;23.17;;
60372;SDS011;46216;52.220;5.134;2023-03-21T05:37:21;48.17;;;22.73;;
60372;SDS011;46216;52.220;5.134;2023-03-21T05:39:46;51.85;;;22.20;;
60372;SDS011;46216;52.220;5.134;2023-03-21T05:42:12;52.83;;;23.95;;
60372;SDS011;46216;52.220;5.134;2023-03-21T05:44:37;49.15;;;23.35;;
60372;SDS011;46216;52.220;5.134;2023-03-21T05:47:04;48.65;;;22.92;;
60372;SDS011;46216;52.220;5.134;2023-03-21T05:49:30;46.53;;;22.92;;
60372;SDS011;46216;52.220;5.134;2023-03-21T05:51:56;47.05;;;23.52;;
60372;SDS011;46216;52.220;5.134;2023-03-21T05:54:21;49.30;;;22.95;;
60372;SDS011;46216;52.220;5.134;2023-03-21T05:56:47;46.95;;;22.42;;
60372;SDS011;46216;52.220;5.134;2023-03-21T05:59:12;42.65;;;22.35;;
60372;SDS011;46216;52.220;5.134;2023-03-21T06:01:37;50.95;;;23.88;;
60372;SDS011;46216;52.220;5.134;2023-03-21T06:04:03;51.83;;;23.92;;
60372;SDS011;46216;52.220;5.134;2023-03-21T06:06:28;51.13;;;23.50;;
60372;SDS011;46216;52.220;5.134;2023-03-21T06:08:53;45.67;;;23.40;;
60372;SDS011;46216;52.220;5.134;2023-03-21T06:11:23;43.70;;;22.85;;
60372;SDS011;46216;52.220;5.134;2023-03-21T06:13:50;41.65;;;21.90;;
60372;SDS011;46216;52.220;5.134;2023-03-21T06:16:16;53.83;;;22.92;;
60372;SDS011;46216;52.220;5.134;2023-03-21T06:18:41;46.67;;;22.30;;
60372;SDS011;46216;52.220;5.134;2023-03-21T06:21:06;39.08;;;21.05;;
60372;SDS011;46216;52.220;5.134;2023-03-21T06:23:32;46.85;;;22.13;;
60372;SDS011;46216;52.220;5.134;2023-03-21T06:25:57;46.67;;;21.63;;
60372;SDS011;46216;52.220;5.134;2023-03-21T06:28:22;45.50;;;22.33;;
60372;SDS011;46216;52.220;5.134;2023-03-21T06:30:48;47.47;;;22.30;;
60372;SDS011;46216;52.220;5.134;2023-03-21T06:33:13;44.70;;;20.80;;
60372;SDS011;46216;52.220;5.134;2023-03-21T06:35:39;45.58;;;20.77;;
60372;SDS011;46216;52.220;5.134;2023-03-21T06:38:04;42.92;;;20.80;;
60372;SDS011;46216;52.220;5.134;2023-03-21T06:40:30;44.95;;;20.92;;
60372;SDS011;46216;52.220;5.134;2023-03-21T06:42:55;43.95;;;21.20;;
60372;SDS011;46216;52.220;5.134;2023-03-21T06:45:20;43.17;;;20.92;;
60372;SDS011;46216;52.220;5.134;2023-03-21T06:47:46;47.40;;;21.08;;
60372;SDS011;46216;52.220;5.134;2023-03-21T06:50:11;45.65;;;20.50;;
60372;SDS011;46216;52.220;5.134;2023-03-21T06:52:36;41.08;;;19.83;;
60372;SDS011;46216;52.220;5.134;2023-03-21T06:55:02;36.17;;;19.25;;
60372;SDS011;46216;52.220;5.134;2023-03-21T06:57:27;45.58;;;19.95;;
60372;SDS011;46216;52.220;5.134;2023-03-21T06:59:53;41.05;;;19.60;;
60372;SDS011;46216;52.220;5.134;2023-03-21T07:02:18;34.85;;;18.38;;
60372;SDS011;46216;52.220;5.134;2023-03-21T07:04:43;40.28;;;18.75;;
60372;SDS011;46216;52.220;5.134;2023-03-21T07:07:09;38.83;;;18.63;;
60372;SDS011;46216;52.220;5.134;2023-03-21T07:09:34;38.33;;;17.52;;
60372;SDS011;46216;52.220;5.134;2023-03-21T07:12:00;35.83;;;16.48;;
60372;SDS011;46216;52.220;5.134;2023-03-21T07:14:26;33.08;;;15.88;;
60372;SDS011;46216;52.220;5.134;2023-03-21T07:16:51;30.20;;;15.80;;
60372;SDS011;46216;52.220;5.134;2023-03-21T07:19:19;31.40;;;14.10;;
60372;SDS011;46216;52.220;5.134;2023-03-21T07:21:44;32.65;;;14.85;;
60372;SDS011;46216;52.220;5.134;2023-03-21T07:24:10;32.92;;;14.85;;
60372;SDS011;46216;52.220;5.134;2023-03-21T07:26:35;30.58;;;14.02;;
60372;SDS011;46216;52.220;5.134;2023-03-21T07:29:01;27.05;;;14.52;;
60372;SDS011;46216;52.220;5.134;2023-03-21T07:31:27;28.52;;;14.32;;
60372;SDS011;46216;52.220;5.134;2023-03-21T07:33:52;27.80;;;13.93;;
60372;SDS011;46216;52.220;5.134;2023-03-21T07:36:17;28.13;;;13.65;;
60372;SDS011;46216;52.220;5.134;2023-03-21T07:38:43;27.40;;;13.93;;
60372;SDS011;46216;52.220;5.134;2023-03-21T07:41:10;29.08;;;13.90;;
60372;SDS011;46216;52.220;5.134;2023-03-21T07:43:38;25.65;;;13.70;;
60372;SDS011;46216;52.220;5.134;2023-03-21T07:46:04;30.58;;;14.10;;
60372;SDS011;46216;52.220;5.134;2023-03-21T07:48:29;31.00;;;13.55;;
60372;SDS011;46216;52.220;5.134;2023-03-21T07:50:55;24.58;;;12.45;;
60372;SDS011;46216;52.220;5.134;2023-03-21T07:53:21;24.23;;;13.35;;
60372;SDS011;46216;52.220;5.134;2023-03-21T07:55:52;24.90;;;13.32;;
60372;SDS011;46216;52.220;5.134;2023-03-21T07:58:20;26.25;;;12.82;;
60372;SDS011;46216;52.220;5.134;2023-03-21T08:00:46;23.88;;;12.32;;
60372;SDS011;46216;52.220;5.134;2023-03-21T08:03:12;27.17;;;12.50;;
60372;SDS011;46216;52.220;5.134;2023-03-21T08:05:38;20.85;;;12.45;;
60372;SDS011;46216;52.220;5.134;2023-03-21T08:08:04;25.05;;;12.10;;
60372;SDS011;46216;52.220;5.134;2023-03-21T08:10:30;19.55;;;11.98;;
60372;SDS011;46216;52.220;5.134;2023-03-21T08:12:56;26.20;;;12.77;;
60372;SDS011;46216;52.220;5.134;2023-03-21T08:15:21;30.60;;;13.20;;
60372;SDS011;46216;52.220;5.134;2023-03-21T08:17:47;26.08;;;13.02;;
60372;SDS011;46216;52.220;5.134;2023-03-21T08:20:14;25.85;;;12.82;;
60372;SDS011;46216;52.220;5.134;2023-03-21T08:22:42;26.77;;;13.77;;
60372;SDS011;46216;52.220;5.134;2023-03-21T08:25:08;25.35;;;13.00;;
60372;SDS011;46216;52.220;5.134;2023-03-21T08:27:37;27.20;;;13.25;;
60372;SDS011;46216;52.220;5.134;2023-03-21T08:30:03;24.63;;;13.15;;
60372;SDS011;46216;52.220;5.134;2023-03-21T08:32:29;22.73;;;13.23;;
60372;SDS011;46216;52.220;5.134;2023-03-21T08:35:01;24.00;;;13.55;;
60372;SDS011;46216;52.220;5.134;2023-03-21T08:37:28;25.02;;;12.98;;
60372;SDS011;46216;52.220;5.134;2023-03-21T08:39:54;22.90;;;13.10;;
60372;SDS011;46216;52.220;5.134;2023-03-21T08:42:20;24.25;;;12.90;;
60372;SDS011;46216;52.220;5.134;2023-03-21T08:44:46;25.58;;;12.55;;
60372;SDS011;46216;52.220;5.134;2023-03-21T08:47:12;23.90;;;12.60;;
60372;SDS011;46216;52.220;5.134;2023-03-21T08:49:38;21.35;;;12.75;;
60372;SDS011;46216;52.220;5.134;2023-03-21T08:52:05;27.30;;;11.73;;
60372;SDS011;46216;52.220;5.134;2023-03-21T08:54:30;22.92;;;12.52;;
60372;SDS011;46216;52.220;5.134;2023-03-21T08:56:56;22.95;;;12.25;;
60372;SDS011;46216;52.220;5.134;2023-03-21T08:59:21;20.75;;;11.02;;
60372;SDS011;46216;52.220;5.134;2023-03-21T09:01:47;19.23;;;10.75;;
60372;SDS011;46216;52.220;5.134;2023-03-21T09:04:12;21.30;;;11.35;;
60372;SDS011;46216;52.220;5.134;2023-03-21T09:06:38;23.52;;;11.35;;
60372;SDS011;46216;52.220;5.134;2023-03-21T09:09:09;21.15;;;10.85;;
60372;SDS011;46216;52.220;5.134;2023-03-21T09:11:35;19.13;;;10.95;;
60372;SDS011;46216;52.220;5.134;2023-03-21T09:14:00;19.92;;;10.70;;
60372;SDS011;46216;52.220;5.134;2023-03-21T09:16:26;19.95;;;10.18;;
60372;SDS011;46216;52.220;5.134;2023-03-21T09:18:52;18.52;;;10.00;;
60372;SDS011;46216;52.220;5.134;2023-03-21T09:21:20;16.73;;;9.43;;
60372;SDS011;46216;52.220;5.134;2023-03-21T09:23:47;17.88;;;8.80;;
60372;SDS011;46216;52.220;5.134;2023-03-21T09:26:17;18.02;;;8.82;;
60372;SDS011;46216;52.220;5.134;2023-03-21T09:28:43;15.10;;;8.50;;
60372;SDS011;46216;52.220;5.134;2023-03-21T09:31:10;16.58;;;8.52;;
60372;SDS011;46216;52.220;5.134;2023-03-21T09:33:37;12.95;;;8.43;;
60372;SDS011;46216;52.220;5.134;2023-03-21T09:36:04;11.88;;;7.88;;
60372;SDS011;46216;52.220;5.134;2023-03-21T09:38:35;12.10;;;7.88;;
60372;SDS011;46216;52.220;5.134;2023-03-21T09:46:23;12.98;;;7.30;;
60372;SDS011;46216;52.220;5.134;2023-03-21T09:48:58;14.02;;;7.43;;
60372;SDS011;46216;52.220;5.134;2023-03-21T09:51:30;14.88;;;7.78;;
60372;SDS011;46216;52.220;5.134;2023-03-21T09:54:10;12.82;;;7.47;;
60372;SDS011;46216;52.220;5.134;2023-03-21T09:56:41;15.98;;;7.88;;
60372;SDS011;46216;52.220;5.134;2023-03-21T09:59:10;12.70;;;8.23;;
60372;SDS011;46216;52.220;5.134;2023-03-21T10:01:45;15.25;;;8.25;;
60372;SDS011;46216;52.220;5.134;2023-03-21T10:04:13;12.93;;;8.27;;
60372;SDS011;46216;52.220;5.134;2023-03-21T10:06:55;12.45;;;8.30;;
60372;SDS011;46216;52.220;5.134;2023-03-21T10:09:23;13.05;;;8.02;;
60372;SDS011;46216;52.220;5.134;2023-03-21T10:11:56;14.25;;;8.73;;
60372;SDS011;46216;52.220;5.134;2023-03-21T10:17:01;13.95;;;8.25;;
60372;SDS011;46216;52.220;5.134;2023-03-21T10:19:33;12.82;;;8.18;;
60372;SDS011;46216;52.220;5.134;2023-03-21T10:21:59;11.75;;;7.85;;
60372;SDS011;46216;52.220;5.134;2023-03-21T10:24:25;17.45;;;8.65;;
60372;SDS011;46216;52.220;5.134;2023-03-21T10:26:53;17.00;;;8.75;;
60372;SDS011;46216;52.220;5.134;2023-03-21T10:29:19;13.10;;;8.13;;
60372;SDS011;46216;52.220;5.134;2023-03-21T10:31:50;14.35;;;8.05;;
60372;SDS011;46216;52.220;5.134;2023-03-21T10:34:24;14.23;;;8.40;;
60372;SDS011;46216;52.220;5.134;2023-03-21T10:37:01;15.45;;;8.77;;
60372;SDS011;46216;52.220;5.134;2023-03-21T10:42:04;14.45;;;8.30;;
60372;SDS011;46216;52.220;5.134;2023-03-21T10:44:33;14.93;;;8.30;;
60372;SDS011;46216;52.220;5.134;2023-03-21T10:47:04;13.32;;;8.15;;
60372;SDS011;46216;52.220;5.134;2023-03-21T10:49:35;12.55;;;8.20;;
60372;SDS011;46216;52.220;5.134;2023-03-21T10:52:03;11.95;;;7.90;;
60372;SDS011;46216;52.220;5.134;2023-03-21T10:54:32;15.55;;;8.20;;
60372;SDS011;46216;52.220;5.134;2023-03-21T10:57:05;13.25;;;8.27;;
60372;SDS011;46216;52.220;5.134;2023-03-21T10:59:43;12.85;;;7.93;;
60372;SDS011;46216;52.220;5.134;2023-03-21T11:02:15;12.02;;;7.80;;
60372;SDS011;46216;52.220;5.134;2023-03-21T11:04:44;12.85;;;7.43;;
60372;SDS011;46216;52.220;5.134;2023-03-21T11:07:11;10.90;;;7.75;;
60372;SDS011;46216;52.220;5.134;2023-03-21T11:09:43;11.45;;;7.93;;
60372;SDS011;46216;52.220;5.134;2023-03-21T11:12:12;17.27;;;8.85;;
60372;SDS011;46216;52.220;5.134;2023-03-21T11:14:48;13.07;;;7.90;;
60372;SDS011;46216;52.220;5.134;2023-03-21T11:19:40;11.68;;;7.97;;
60372;SDS011;46216;52.220;5.134;2023-03-21T11:22:05;13.43;;;8.23;;
60372;SDS011;46216;52.220;5.134;2023-03-21T11:24:32;13.13;;;8.50;;
60372;SDS011;46216;52.220;5.134;2023-03-21T11:26:59;12.77;;;7.90;;
60372;SDS011;46216;52.220;5.134;2023-03-21T11:29:34;14.30;;;8.10;;
60372;SDS011;46216;52.220;5.134;2023-03-21T11:35:04;12.27;;;8.50;;
60372;SDS011;46216;52.220;5.134;2023-03-21T11:37:44;14.40;;;8.25;;
60372;SDS011;46216;52.220;5.134;2023-03-21T11:40:21;14.75;;;8.43;;
60372;SDS011;46216;52.220;5.134;2023-03-21T11:45:54;16.23;;;8.95;;
60372;SDS011;46216;52.220;5.134;2023-03-21T11:48:20;18.42;;;9.27;;
60372;SDS011;46216;52.220;5.134;2023-03-21T11:50:47;12.15;;;8.48;;
60372;SDS011;46216;52.220;5.134;2023-03-21T11:53:33;14.70;;;8.55;;
60372;SDS011;46216;52.220;5.134;2023-03-21T12:13:00;14.70;;;9.50;;
60372;SDS011;46216;52.220;5.134;2023-03-21T12:24:57;14.23;;;9.40;;
60372;SDS011;46216;52.220;5.134;2023-03-21T12:30:23;12.43;;;8.05;;
60372;SDS011;46216;52.220;5.134;2023-03-21T12:33:01;13.80;;;8.25;;
60372;SDS011;46216;52.220;5.134;2023-03-21T12:35:53;12.45;;;8.23;;
60372;SDS011;46216;52.220;5.134;2023-03-21T12:38:38;13.05;;;7.60;;
60372;SDS011;46216;52.220;5.134;2023-03-21T12:43:43;10.20;;;7.40;;
60372;SDS011;46216;52.220;5.134;2023-03-21T12:48:59;10.65;;;7.05;;
60372;SDS011;46216;52.220;5.134;2023-03-21T12:51:35;10.73;;;6.70;;
60372;SDS011;46216;52.220;5.134;2023-03-21T12:54:26;11.38;;;7.38;;
60372;SDS011;46216;52.220;5.134;2023-03-21T13:02:59;10.85;;;7.22;;
60372;SDS011;46216;52.220;5.134;2023-03-21T13:05:32;10.80;;;7.25;;
60372;SDS011;46216;52.220;5.134;2023-03-21T13:08:03;11.48;;;7.60;;
60372;SDS011;46216;52.220;5.134;2023-03-21T13:10:33;11.65;;;7.22;;
60372;SDS011;46216;52.220;5.134;2023-03-21T13:13:04;8.30;;;6.85;;
60372;SDS011;46216;52.220;5.134;2023-03-21T13:23:58;11.05;;;7.40;;
60372;SDS011;46216;52.220;5.134;2023-03-21T13:26:39;11.75;;;8.48;;
60372;SDS011;46216;52.220;5.134;2023-03-21T13:29:40;11.27;;;7.50;;
60372;SDS011;46216;52.220;5.134;2023-03-21T13:32:21;10.38;;;7.13;;
60372;SDS011;46216;52.220;5.134;2023-03-21T13:34:52;9.05;;;7.05;;
60372;SDS011;46216;52.220;5.134;2023-03-21T13:37:20;11.70;;;7.43;;
60372;SDS011;46216;52.220;5.134;2023-03-21T13:39:45;12.85;;;7.50;;
60372;SDS011;46216;52.220;5.134;2023-03-21T13:42:21;13.95;;;8.23;;
60372;SDS011;46216;52.220;5.134;2023-03-21T13:44:51;11.18;;;8.25;;
60372;SDS011;46216;52.220;5.134;2023-03-21T13:50:23;15.60;;;8.80;;
60372;SDS011;46216;52.220;5.134;2023-03-21T13:53:09;12.18;;;8.27;;
60372;SDS011;46216;52.220;5.134;2023-03-21T13:55:42;10.45;;;8.10;;
60372;SDS011;46216;52.220;5.134;2023-03-21T14:04:09;14.93;;;7.97;;
60372;SDS011;46216;52.220;5.134;2023-03-21T14:09:57;15.18;;;7.88;;
60372;SDS011;46216;52.220;5.134;2023-03-21T14:12:27;13.50;;;7.95;;
60372;SDS011;46216;52.220;5.134;2023-03-21T14:15:06;12.80;;;8.10;;
60372;SDS011;46216;52.220;5.134;2023-03-21T14:17:47;11.50;;;7.80;;
60372;SDS011;46216;52.220;5.134;2023-03-21T14:20:15;10.60;;;7.72;;
60372;SDS011;46216;52.220;5.134;2023-03-21T14:22:46;10.38;;;7.75;;
60372;SDS011;46216;52.220;5.134;2023-03-21T14:25:13;10.00;;;7.88;;
60372;SDS011;46216;52.220;5.134;2023-03-21T14:27:42;11.20;;;8.00;;
60372;SDS011;46216;52.220;5.134;2023-03-21T14:30:18;11.93;;;7.93;;
60372;SDS011;46216;52.220;5.134;2023-03-21T14:32:46;12.68;;;7.78;;
60372;SDS011;46216;52.220;5.134;2023-03-21T14:35:12;11.85;;;7.60;;
60372;SDS011;46216;52.220;5.134;2023-03-21T14:37:40;10.73;;;7.70;;
60372;SDS011;46216;52.220;5.134;2023-03-21T14:40:17;12.35;;;7.47;;
60372;SDS011;46216;52.220;5.134;2023-03-21T14:42:46;11.15;;;7.60;;
60372;SDS011;46216;52.220;5.134;2023-03-21T14:50:23;12.15;;;8.50;;
60372;SDS011;46216;52.220;5.134;2023-03-21T14:52:57;10.80;;;8.00;;
60372;SDS011;46216;52.220;5.134;2023-03-21T14:55:23;11.93;;;8.13;;
60372;SDS011;46216;52.220;5.134;2023-03-21T14:57:49;13.00;;;7.85;;
60372;SDS011;46216;52.220;5.134;2023-03-21T15:00:21;12.35;;;8.10;;
60372;SDS011;46216;52.220;5.134;2023-03-21T15:02:49;9.88;;;7.90;;
60372;SDS011;46216;52.220;5.134;2023-03-21T15:05:18;10.00;;;7.97;;
60372;SDS011;46216;52.220;5.134;2023-03-21T15:07:51;11.63;;;7.75;;
60372;SDS011;46216;52.220;5.134;2023-03-21T15:10:22;8.63;;;7.32;;
60372;SDS011;46216;52.220;5.134;2023-03-21T15:12:50;11.40;;;7.15;;
60372;SDS011;46216;52.220;5.134;2023-03-21T15:15:17;9.65;;;6.78;;
60372;SDS011;46216;52.220;5.134;2023-03-21T15:17:43;12.00;;;7.05;;
60372;SDS011;46216;52.220;5.134;2023-03-21T15:20:13;10.63;;;6.55;;
60372;SDS011;46216;52.220;5.134;2023-03-21T15:22:42;10.82;;;6.63;;
60372;SDS011;46216;52.220;5.134;2023-03-21T15:25:15;11.52;;;7.20;;
60372;SDS011;46216;52.220;5.134;2023-03-21T15:27:43;11.55;;;6.78;;
60372;SDS011;46216;52.220;5.134;2023-03-21T15:30:19;9.80;;;6.40;;
60372;SDS011;46216;52.220;5.134;2023-03-21T15:32:47;9.02;;;6.45;;
60372;SDS011;46216;52.220;5.134;2023-03-21T15:35:14;11.73;;;6.63;;
60372;SDS011;46216;52.220;5.134;2023-03-21T15:37:50;9.35;;;6.47;;
60372;SDS011;46216;52.220;5.134;2023-03-21T15:40:22;10.65;;;7.00;;
60372;SDS011;46216;52.220;5.134;2023-03-21T15:42:50;8.32;;;6.50;;
60372;SDS011;46216;52.220;5.134;2023-03-21T15:45:28;8.38;;;6.40;;
60372;SDS011;46216;52.220;5.134;2023-03-21T15:47:58;10.80;;;5.80;;
60372;SDS011;46216;52.220;5.134;2023-03-21T15:53:15;8.65;;;6.10;;
60372;SDS011;46216;52.220;5.134;2023-03-21T15:55:46;10.00;;;5.93;;
60372;SDS011;46216;52.220;5.134;2023-03-21T15:58:23;10.30;;;6.18;;
60372;SDS011;46216;52.220;5.134;2023-03-21T16:00:52;8.88;;;6.13;;
60372;SDS011;46216;52.220;5.134;2023-03-21T16:03:23;9.38;;;6.80;;
60372;SDS011;46216;52.220;5.134;2023-03-21T16:11:27;11.30;;;8.40;;
60372;SDS011;46216;52.220;5.134;2023-03-21T16:14:02;9.57;;;8.00;;
60372;SDS011;46216;52.220;5.134;2023-03-21T16:16:27;12.15;;;8.43;;
60372;SDS011;46216;52.220;5.134;2023-03-21T16:18:54;10.95;;;8.23;;
60372;SDS011;46216;52.220;5.134;2023-03-21T16:21:23;10.20;;;8.40;;
60372;SDS011;46216;52.220;5.134;2023-03-21T16:23:51;13.07;;;8.40;;
60372;SDS011;46216;52.220;5.134;2023-03-21T16:26:18;13.88;;;8.75;;
60372;SDS011;46216;52.220;5.134;2023-03-21T16:28:45;11.82;;;8.20;;
60372;SDS011;46216;52.220;5.134;2023-03-21T16:31:12;10.85;;;7.25;;
60372;SDS011;46216;52.220;5.134;2023-03-21T16:33:42;10.25;;;7.70;;
60372;SDS011;46216;52.220;5.134;2023-03-21T16:36:12;10.30;;;7.32;;
60372;SDS011;46216;52.220;5.134;2023-03-21T16:38:41;9.15;;;6.70;;
60372;SDS011;46216;52.220;5.134;2023-03-21T16:41:08;10.30;;;6.75;;
60372;SDS011;46216;52.220;5.134;2023-03-21T16:43:35;7.30;;;5.93;;
60372;SDS011;46216;52.220;5.134;2023-03-21T16:46:03;8.88;;;6.53;;
60372;SDS011;46216;52.220;5.134;2023-03-21T16:48:29;6.35;;;5.43;;